createdAt,value
2022-09-11T00:03:50.327Z,100.00
2022-09-11T00:08:54.455Z,100.00
2022-09-11T00:13:56.949Z,100.00
2022-09-11T00:19:00.874Z,100.00
2022-09-11T00:24:04.193Z,100.00
2022-09-11T00:29:06.058Z,100.00
2022-09-11T00:34:07.841Z,100.00
2022-09-11T00:39:11.964Z,100.00
2022-09-11T00:44:15.579Z,100.00
2022-09-11T00:49:26.569Z,100.00
2022-09-11T00:54:39.402Z,100.00
2022-09-11T00:59:43.746Z,100.00
2022-09-11T01:04:45.717Z,100.00
2022-09-11T01:09:48.413Z,100.00
2022-09-11T01:15:07.601Z,100.00
2022-09-11T01:21:04.256Z,100.00
2022-09-11T01:26:34.293Z,100.00
2022-09-11T01:31:58.902Z,100.00
2022-09-11T01:37:05.693Z,100.00
2022-09-11T01:42:14.449Z,100.00
2022-09-11T01:47:19.073Z,100.00
2022-09-11T01:52:27.607Z,100.00
2022-09-11T01:57:36.138Z,100.00
2022-09-11T02:02:44.363Z,100.00
2022-09-11T02:07:55.870Z,100.00
2022-09-11T02:13:11.668Z,100.00
2022-09-11T02:18:24.400Z,100.00
2022-09-11T02:23:26.277Z,100.00
2022-09-11T02:28:28.782Z,100.00
2022-09-11T02:33:35.872Z,100.00
2022-09-11T02:38:56.996Z,100.00
2022-09-11T02:44:14.539Z,100.00
2022-09-11T02:49:41.504Z,100.00
2022-09-11T02:54:47.173Z,100.00
2022-09-11T02:59:56.624Z,100.00
2022-09-11T03:04:58.607Z,100.00
2022-09-11T03:10:00.789Z,100.00
2022-09-11T03:15:05.448Z,100.00
2022-09-11T03:20:08.331Z,100.00
2022-09-11T03:25:11.434Z,100.00
2022-09-11T03:30:13.622Z,100.00
2022-09-11T03:35:16.110Z,100.00
2022-09-11T03:40:19.802Z,100.00
2022-09-11T03:45:21.671Z,100.00
2022-09-11T03:50:23.584Z,100.00
2022-09-11T03:55:25.564Z,100.00
2022-09-11T04:00:27.335Z,100.00
2022-09-11T04:05:29.315Z,100.00
2022-09-11T04:10:34.878Z,100.00
2022-09-11T04:15:36.651Z,100.00
2022-09-11T04:20:39.349Z,100.00
2022-09-11T04:25:41.226Z,100.00
2022-09-11T04:30:43.103Z,100.00
2022-09-11T04:35:44.853Z,100.00
2022-09-11T04:40:47.327Z,100.00
2022-09-11T04:45:49.395Z,100.00
2022-09-11T04:51:02.900Z,100.00
2022-09-11T04:56:07.541Z,100.00
2022-09-11T05:01:12.823Z,100.00
2022-09-11T05:06:17.233Z,100.00
2022-09-11T05:11:22.384Z,100.00
2022-09-11T05:16:26.608Z,100.00
2022-09-11T05:21:29.825Z,100.00
2022-09-11T05:26:34.570Z,100.00
2022-09-11T05:31:36.889Z,100.00
2022-09-11T05:36:38.629Z,100.00
2022-09-11T05:41:40.405Z,100.00
2022-09-11T05:46:42.284Z,100.00
2022-09-11T05:51:44.881Z,100.00
2022-09-11T05:56:46.751Z,100.00
2022-09-11T06:01:49.378Z,100.00
2022-09-11T06:06:51.427Z,100.00
2022-09-11T06:11:54.794Z,100.00
2022-09-11T06:16:56.844Z,100.00
2022-09-11T06:21:58.550Z,100.00
2022-09-11T06:27:00.474Z,100.00
2022-09-11T06:32:03.530Z,100.00
2022-09-11T06:37:05.269Z,100.00
2022-09-11T06:42:07.945Z,100.00
2022-09-11T06:47:10.231Z,100.00
2022-09-11T06:52:12.108Z,99.05
2022-09-11T06:57:15.109Z,98.97
2022-09-11T07:02:16.884Z,97.28
2022-09-11T07:07:18.657Z,94.97
2022-09-11T07:12:23.504Z,93.16
2022-09-11T07:17:25.384Z,91.43
2022-09-11T07:22:29.099Z,89.28
2022-09-11T07:27:34.060Z,86.72
2022-09-11T07:32:37.156Z,84.88
2022-09-11T07:37:39.032Z,81.46
2022-09-11T07:42:40.704Z,79.94
2022-09-11T07:47:42.783Z,79.00
2022-09-11T07:52:44.973Z,77.74
2022-09-11T07:57:47.356Z,75.22
2022-09-11T08:02:49.277Z,70.67
2022-09-11T08:07:51.212Z,66.77
2022-09-11T08:12:58.055Z,62.57
2022-09-11T08:18:04.903Z,56.76
2022-09-11T08:23:06.676Z,53.15
2022-09-11T08:28:09.065Z,48.57
2022-09-11T08:33:12.577Z,49.74
2022-09-11T08:38:14.561Z,48.31
2022-09-11T08:43:35.583Z,45.52
2022-09-11T08:49:05.828Z,40.19
2022-09-11T08:54:21.625Z,35.54
2022-09-11T08:59:24.437Z,33.59
2022-09-11T09:05:00.302Z,29.69
2022-09-11T09:10:20.745Z,29.21
2022-09-11T09:15:54.063Z,29.03
2022-09-11T09:21:17.510Z,32.36
2022-09-11T09:26:29.339Z,36.32
2022-09-11T09:31:33.552Z,38.26
2022-09-11T09:36:46.893Z,40.30
2022-09-11T09:42:12.018Z,40.33
2022-09-11T09:47:15.325Z,40.85
2022-09-11T09:52:24.485Z,40.87
2022-09-11T09:57:31.157Z,39.79
2022-09-11T10:02:39.456Z,37.40
2022-09-11T10:07:51.412Z,39.54
2022-09-11T10:13:24.508Z,39.77
2022-09-11T10:18:33.087Z,40.93
2022-09-11T10:23:46.481Z,42.76
2022-09-11T10:28:49.399Z,43.42
2022-09-11T10:33:57.110Z,44.86
2022-09-11T10:39:02.157Z,42.17
2022-09-11T10:44:14.176Z,41.88
2022-09-11T10:49:24.191Z,39.97
2022-09-11T10:54:40.966Z,41.63
2022-09-11T10:59:48.482Z,40.26
2022-09-11T11:04:51.171Z,40.50
2022-09-11T11:10:23.050Z,42.51
2022-09-11T11:15:56.846Z,42.88
2022-09-11T11:21:19.034Z,42.60
2022-09-11T11:26:49.707Z,41.70
2022-09-11T11:32:05.792Z,42.51
2022-09-11T11:37:08.846Z,41.27
2022-09-11T11:42:30.556Z,41.35
2022-09-11T11:47:43.883Z,41.15
2022-09-11T11:53:08.283Z,39.40
2022-09-11T11:58:24.004Z,40.68
2022-09-11T12:03:44.914Z,41.33
2022-09-11T12:08:49.653Z,41.03
2022-09-11T12:13:55.403Z,40.15
2022-09-11T12:19:05.242Z,42.08
2022-09-11T12:24:20.692Z,42.66
2022-09-11T12:30:11.002Z,43.58
2022-09-11T12:35:49.025Z,43.77
2022-09-11T12:40:59.709Z,42.75
2022-09-11T12:46:29.228Z,43.69
2022-09-11T12:51:51.988Z,42.55
2022-09-11T12:57:18.953Z,42.66
2022-09-11T13:02:38.033Z,42.74
2022-09-11T13:07:48.556Z,43.53
2022-09-11T13:12:57.599Z,42.99
2022-09-11T13:18:01.613Z,42.83
2022-09-11T13:23:18.316Z,41.77
2022-09-11T13:28:25.433Z,41.46
2022-09-11T13:33:33.756Z,42.65
2022-09-11T13:38:37.560Z,44.00
2022-09-11T13:43:46.808Z,44.66
2022-09-11T13:48:57.662Z,44.88
2022-09-11T13:54:11.783Z,45.20
2022-09-11T13:59:49.309Z,46.32
2022-09-11T14:04:58.752Z,47.27
2022-09-11T14:10:10.503Z,48.58
2022-09-11T14:15:26.586Z,50.15
2022-09-11T14:20:31.084Z,50.34
2022-09-11T14:25:35.600Z,50.61
2022-09-11T14:30:39.151Z,51.23
2022-09-11T14:35:43.706Z,50.52
2022-09-11T14:40:56.613Z,48.94
2022-09-11T14:46:02.921Z,48.98
2022-09-11T14:51:13.339Z,49.59
2022-09-11T14:56:16.883Z,50.21
2022-09-11T15:01:21.290Z,51.00
2022-09-11T15:06:25.263Z,51.34
2022-09-11T15:11:33.483Z,51.72
2022-09-11T15:16:43.235Z,52.79
2022-09-11T15:21:57.093Z,53.13
2022-09-11T15:26:59.789Z,51.67
2022-09-11T15:32:06.564Z,51.29
2022-09-11T15:37:09.681Z,52.30
2022-09-11T15:42:13.306Z,52.63
2022-09-11T15:47:22.381Z,52.22
2022-09-11T15:52:29.598Z,53.28
2022-09-11T15:57:35.674Z,53.46
2022-09-11T16:02:42.772Z,54.04
2022-09-11T16:07:49.075Z,54.19
2022-09-11T16:12:58.141Z,55.01
2022-09-11T16:18:07.728Z,55.79
2022-09-11T16:23:18.591Z,56.42
2022-09-11T16:28:31.018Z,57.43
2022-09-11T16:33:48.294Z,58.34
2022-09-11T16:38:52.686Z,59.20
2022-09-11T16:43:56.687Z,60.24
2022-09-11T16:49:01.997Z,61.23
2022-09-11T16:54:05.922Z,61.91
2022-09-11T16:59:09.822Z,62.81
2022-09-11T17:04:14.143Z,63.69
2022-09-11T17:09:22.700Z,64.56
2022-09-11T17:14:31.259Z,65.86
2022-09-11T17:19:34.124Z,67.19
2022-09-11T17:24:36.102Z,67.91
2022-09-11T17:29:44.366Z,68.75
2022-09-11T17:34:47.537Z,69.95
2022-09-11T17:39:53.196Z,71.14
2022-09-11T17:44:56.940Z,72.76
2022-09-11T17:50:01.667Z,73.27
2022-09-11T17:55:10.830Z,73.72
2022-09-11T18:00:19.792Z,74.86
2022-09-11T18:05:26.260Z,75.61
2022-09-11T18:10:34.624Z,76.18
2022-09-11T18:15:39.257Z,76.81
2022-09-11T18:20:44.265Z,77.15
2022-09-11T18:25:49.818Z,77.73
2022-09-11T18:30:57.090Z,78.34
2022-09-11T18:36:10.070Z,79.28
2022-09-11T18:41:16.652Z,79.77
2022-09-11T18:46:24.214Z,80.25
2022-09-11T18:51:29.165Z,80.81
2022-09-11T18:56:35.350Z,81.60
2022-09-11T19:01:44.535Z,82.54
2022-09-11T19:06:49.789Z,82.94
2022-09-11T19:11:53.734Z,83.60
2022-09-11T19:16:55.962Z,84.16
2022-09-11T19:22:02.613Z,84.98
2022-09-11T19:27:06.718Z,85.57
2022-09-11T19:32:09.006Z,85.98
2022-09-11T19:37:15.081Z,86.51
2022-09-11T19:42:18.084Z,87.26
2022-09-11T19:47:20.777Z,88.37
2022-09-11T19:52:23.069Z,88.96
2022-09-11T19:57:24.942Z,89.89
2022-09-11T20:02:27.535Z,90.51
2022-09-11T20:07:29.616Z,90.96
2022-09-11T20:12:36.818Z,91.03
2022-09-11T20:17:40.855Z,90.95
2022-09-11T20:22:43.615Z,91.12
2022-09-11T20:27:47.568Z,91.53
2022-09-11T20:32:49.555Z,92.17
2022-09-11T20:37:52.456Z,92.66
2022-09-11T20:42:54.735Z,92.88
2022-09-11T20:47:57.841Z,92.67
2022-09-11T20:53:00.516Z,92.68
2022-09-11T20:58:02.836Z,92.78
2022-09-11T21:03:04.695Z,92.83
2022-09-11T21:08:06.573Z,92.79
2022-09-11T21:13:11.115Z,92.67
2022-09-11T21:18:15.078Z,92.70
2022-09-11T21:23:16.833Z,92.76
2022-09-11T21:28:18.800Z,92.95
2022-09-11T21:33:20.893Z,93.31
2022-09-11T21:38:27.998Z,93.51
2022-09-11T21:43:30.565Z,93.81
2022-09-11T21:48:35.713Z,94.19
2022-09-11T21:53:39.138Z,94.82
2022-09-11T21:58:41.315Z,95.11
2022-09-11T22:03:44.167Z,95.53
2022-09-11T22:08:46.722Z,95.93
2022-09-11T22:13:49.095Z,96.01
2022-09-11T22:18:54.039Z,96.15
2022-09-11T22:23:56.855Z,96.53
2022-09-11T22:28:59.541Z,97.01
2022-09-11T22:34:01.725Z,97.94
2022-09-11T22:39:05.033Z,98.27
2022-09-11T22:44:07.641Z,98.83
2022-09-11T22:49:09.604Z,99.28
2022-09-11T22:54:13.324Z,99.62
2022-09-11T22:59:14.997Z,99.94
2022-09-11T23:04:17.079Z,100.00
2022-09-11T23:09:18.850Z,100.00
2022-09-11T23:14:20.626Z,100.00
2022-09-11T23:19:22.913Z,100.00
2022-09-11T23:24:25.403Z,100.00
2022-09-11T23:29:27.484Z,100.00
2022-09-11T23:34:29.362Z,100.00
2022-09-11T23:39:31.238Z,100.00
2022-09-11T23:44:32.909Z,100.00
2022-09-11T23:49:36.472Z,100.00
2022-09-11T23:54:38.712Z,100.00
2022-09-11T23:59:40.485Z,100.00
